sensor_id;sensor_type;location;lat;lon;timestamp;P1;P2;P0
80413;PMS5003;69758;52.580;13.068;2024-02-16T00:01:38;7;7;
80413;PMS5003;69758;52.580;13.068;2024-02-16T00:04:03;12;12;
80413;PMS5003;69758;52.580;13.068;2024-02-16T00:06:28;19;15;
80413;PMS5003;69758;52.580;13.068;2024-02-16T00:08:54;22;22;
80413;PMS5003;69758;52.580;13.068;2024-02-16T00:11:19;14;14;
80413;PMS5003;69758;52.580;13.068;2024-02-16T00:13:45;12;12;
80413;PMS5003;69758;52.580;13.068;2024-02-16T00:16:10;7;6;
80413;PMS5003;69758;52.580;13.068;2024-02-16T00:18:35;7;7;
80413;PMS5003;69758;52.580;13.068;2024-02-16T00:21:01;9;9;
80413;PMS5003;69758;52.580;13.068;2024-02-16T00:23:26;10;10;
80413;PMS5003;69758;52.580;13.068;2024-02-16T00:25:51;11;9;
80413;PMS5003;69758;52.580;13.068;2024-02-16T00:28:16;10;10;
80413;PMS5003;69758;52.580;13.068;2024-02-16T00:30:41;8;8;
80413;PMS5003;69758;52.580;13.068;2024-02-16T00:33:07;8;8;
80413;PMS5003;69758;52.580;13.068;2024-02-16T00:35:32;9;8;
80413;PMS5003;69758;52.580;13.068;2024-02-16T00:37:58;11;10;
80413;PMS5003;69758;52.580;13.068;2024-02-16T00:40:23;13;13;
80413;PMS5003;69758;52.580;13.068;2024-02-16T00:42:49;14;14;
80413;PMS5003;69758;52.580;13.068;2024-02-16T00:45:14;13;12;
80413;PMS5003;69758;52.580;13.068;2024-02-16T00:47:39;35;35;
80413;PMS5003;69758;52.580;13.068;2024-02-16T00:50:05;17;17;
80413;PMS5003;69758;52.580;13.068;2024-02-16T00:52:30;11;11;
80413;PMS5003;69758;52.580;13.068;2024-02-16T00:54:55;8;8;
80413;PMS5003;69758;52.580;13.068;2024-02-16T00:57:21;12;12;
80413;PMS5003;69758;52.580;13.068;2024-02-16T00:59:46;18;18;
80413;PMS5003;69758;52.580;13.068;2024-02-16T01:02:11;9;9;
80413;PMS5003;69758;52.580;13.068;2024-02-16T01:04:36;8;7;
80413;PMS5003;69758;52.580;13.068;2024-02-16T01:07:02;8;8;
80413;PMS5003;69758;52.580;13.068;2024-02-16T01:09:27;9;8;
80413;PMS5003;69758;52.580;13.068;2024-02-16T01:11:52;10;9;
80413;PMS5003;69758;52.580;13.068;2024-02-16T01:14:18;15;12;
80413;PMS5003;69758;52.580;13.068;2024-02-16T01:16:43;8;8;
80413;PMS5003;69758;52.580;13.068;2024-02-16T01:19:09;9;8;
80413;PMS5003;69758;52.580;13.068;2024-02-16T01:21:34;7;7;
80413;PMS5003;69758;52.580;13.068;2024-02-16T01:23:59;8;8;
80413;PMS5003;69758;52.580;13.068;2024-02-16T01:26:24;11;10;
80413;PMS5003;69758;52.580;13.068;2024-02-16T01:28:50;15;14;
80413;PMS5003;69758;52.580;13.068;2024-02-16T01:31:15;9;9;
80413;PMS5003;69758;52.580;13.068;2024-02-16T01:33:41;14;14;
80413;PMS5003;69758;52.580;13.068;2024-02-16T01:36:06;9;8;
80413;PMS5003;69758;52.580;13.068;2024-02-16T01:38:31;12;11;
80413;PMS5003;69758;52.580;13.068;2024-02-16T01:40:57;13;13;
80413;PMS5003;69758;52.580;13.068;2024-02-16T01:43:22;11;10;
80413;PMS5003;69758;52.580;13.068;2024-02-16T01:45:48;12;11;
80413;PMS5003;69758;52.580;13.068;2024-02-16T01:48:13;11;10;
80413;PMS5003;69758;52.580;13.068;2024-02-16T01:50:38;12;12;
80413;PMS5003;69758;52.580;13.068;2024-02-16T01:53:04;16;14;
80413;PMS5003;69758;52.580;13.068;2024-02-16T01:55:29;15;14;
80413;PMS5003;69758;52.580;13.068;2024-02-16T01:57:54;16;15;
80413;PMS5003;69758;52.580;13.068;2024-02-16T02:00:19;14;14;
80413;PMS5003;69758;52.580;13.068;2024-02-16T02:02:45;15;14;
80413;PMS5003;69758;52.580;13.068;2024-02-16T02:05:10;19;18;
80413;PMS5003;69758;52.580;13.068;2024-02-16T02:07:36;14;14;
80413;PMS5003;69758;52.580;13.068;2024-02-16T02:10:02;19;19;
80413;PMS5003;69758;52.580;13.068;2024-02-16T02:12:27;15;15;
80413;PMS5003;69758;52.580;13.068;2024-02-16T02:14:53;17;17;
80413;PMS5003;69758;52.580;13.068;2024-02-16T02:17:18;18;18;
80413;PMS5003;69758;52.580;13.068;2024-02-16T02:19:44;15;15;
80413;PMS5003;69758;52.580;13.068;2024-02-16T02:22:12;16;16;
80413;PMS5003;69758;52.580;13.068;2024-02-16T02:24:35;20;20;
80413;PMS5003;69758;52.580;13.068;2024-02-16T02:27:00;17;17;
80413;PMS5003;69758;52.580;13.068;2024-02-16T02:29:25;18;18;
80413;PMS5003;69758;52.580;13.068;2024-02-16T02:31:51;15;14;
80413;PMS5003;69758;52.580;13.068;2024-02-16T02:34:17;20;19;
80413;PMS5003;69758;52.580;13.068;2024-02-16T02:36:42;19;19;
80413;PMS5003;69758;52.580;13.068;2024-02-16T02:39:08;22;21;
80413;PMS5003;69758;52.580;13.068;2024-02-16T02:41:34;18;18;
80413;PMS5003;69758;52.580;13.068;2024-02-16T02:43:59;20;19;
80413;PMS5003;69758;52.580;13.068;2024-02-16T02:46:24;19;18;
80413;PMS5003;69758;52.580;13.068;2024-02-16T02:48:50;17;17;
80413;PMS5003;69758;52.580;13.068;2024-02-16T02:51:16;16;15;
80413;PMS5003;69758;52.580;13.068;2024-02-16T02:53:41;19;19;
80413;PMS5003;69758;52.580;13.068;2024-02-16T02:56:07;19;19;
80413;PMS5003;69758;52.580;13.068;2024-02-16T02:58:32;19;19;
80413;PMS5003;69758;52.580;13.068;2024-02-16T03:00:57;22;21;
80413;PMS5003;69758;52.580;13.068;2024-02-16T03:03:22;21;21;
80413;PMS5003;69758;52.580;13.068;2024-02-16T03:05:49;23;22;
80413;PMS5003;69758;52.580;13.068;2024-02-16T03:08:13;21;21;
80413;PMS5003;69758;52.580;13.068;2024-02-16T03:10:38;24;24;
80413;PMS5003;69758;52.580;13.068;2024-02-16T03:13:04;19;19;
80413;PMS5003;69758;52.580;13.068;2024-02-16T03:15:29;22;19;
80413;PMS5003;69758;52.580;13.068;2024-02-16T03:17:55;22;20;
80413;PMS5003;69758;52.580;13.068;2024-02-16T03:20:22;21;19;
80413;PMS5003;69758;52.580;13.068;2024-02-16T03:22:45;22;21;
80413;PMS5003;69758;52.580;13.068;2024-02-16T03:25:11;28;27;
80413;PMS5003;69758;52.580;13.068;2024-02-16T03:27:36;20;20;
80413;PMS5003;69758;52.580;13.068;2024-02-16T03:30:01;23;22;
80413;PMS5003;69758;52.580;13.068;2024-02-16T03:32:27;21;21;
80413;PMS5003;69758;52.580;13.068;2024-02-16T03:34:52;17;17;
80413;PMS5003;69758;52.580;13.068;2024-02-16T03:37:18;21;19;
80413;PMS5003;69758;52.580;13.068;2024-02-16T03:39:43;21;20;
80413;PMS5003;69758;52.580;13.068;2024-02-16T03:42:08;22;21;
80413;PMS5003;69758;52.580;13.068;2024-02-16T03:44:34;20;20;
80413;PMS5003;69758;52.580;13.068;2024-02-16T03:46:59;20;20;
80413;PMS5003;69758;52.580;13.068;2024-02-16T03:49:24;18;18;
80413;PMS5003;69758;52.580;13.068;2024-02-16T03:51:49;19;19;
80413;PMS5003;69758;52.580;13.068;2024-02-16T03:54:15;33;31;
80413;PMS5003;69758;52.580;13.068;2024-02-16T03:56:40;34;33;
80413;PMS5003;69758;52.580;13.068;2024-02-16T03:59:05;28;25;
80413;PMS5003;69758;52.580;13.068;2024-02-16T04:01:30;23;22;
80413;PMS5003;69758;52.580;13.068;2024-02-16T04:03:55;21;20;
80413;PMS5003;69758;52.580;13.068;2024-02-16T04:06:20;23;22;
80413;PMS5003;69758;52.580;13.068;2024-02-16T04:08:46;22;22;
80413;PMS5003;69758;52.580;13.068;2024-02-16T04:11:12;24;22;
80413;PMS5003;69758;52.580;13.068;2024-02-16T04:13:37;17;17;
80413;PMS5003;69758;52.580;13.068;2024-02-16T04:16:02;21;19;
80413;PMS5003;69758;52.580;13.068;2024-02-16T04:18:27;20;20;
80413;PMS5003;69758;52.580;13.068;2024-02-16T04:20:53;23;22;
80413;PMS5003;69758;52.580;13.068;2024-02-16T04:23:19;24;21;
80413;PMS5003;69758;52.580;13.068;2024-02-16T04:25:44;19;19;
80413;PMS5003;69758;52.580;13.068;2024-02-16T04:28:09;19;18;
80413;PMS5003;69758;52.580;13.068;2024-02-16T04:30:35;24;22;
80413;PMS5003;69758;52.580;13.068;2024-02-16T04:33:00;26;21;
80413;PMS5003;69758;52.580;13.068;2024-02-16T04:35:26;22;21;
80413;PMS5003;69758;52.580;13.068;2024-02-16T04:37:52;19;19;
80413;PMS5003;69758;52.580;13.068;2024-02-16T04:40:17;19;19;
80413;PMS5003;69758;52.580;13.068;2024-02-16T04:42:42;16;16;
80413;PMS5003;69758;52.580;13.068;2024-02-16T04:45:10;22;21;
80413;PMS5003;69758;52.580;13.068;2024-02-16T04:47:33;18;18;
80413;PMS5003;69758;52.580;13.068;2024-02-16T04:49:58;26;22;
80413;PMS5003;69758;52.580;13.068;2024-02-16T04:52:23;19;19;
80413;PMS5003;69758;52.580;13.068;2024-02-16T04:54:48;22;20;
80413;PMS5003;69758;52.580;13.068;2024-02-16T04:57:13;21;19;
80413;PMS5003;69758;52.580;13.068;2024-02-16T04:59:38;19;17;
80413;PMS5003;69758;52.580;13.068;2024-02-16T05:02:04;23;22;
80413;PMS5003;69758;52.580;13.068;2024-02-16T05:04:29;20;18;
80413;PMS5003;69758;52.580;13.068;2024-02-16T05:06:55;22;21;
80413;PMS5003;69758;52.580;13.068;2024-02-16T05:09:20;20;18;
80413;PMS5003;69758;52.580;13.068;2024-02-16T05:11:45;16;16;
80413;PMS5003;69758;52.580;13.068;2024-02-16T05:14:11;20;19;
80413;PMS5003;69758;52.580;13.068;2024-02-16T05:16:36;19;17;
80413;PMS5003;69758;52.580;13.068;2024-02-16T05:19:01;20;19;
80413;PMS5003;69758;52.580;13.068;2024-02-16T05:21:27;16;15;
80413;PMS5003;69758;52.580;13.068;2024-02-16T05:23:52;19;19;
80413;PMS5003;69758;52.580;13.068;2024-02-16T05:26:18;17;17;
80413;PMS5003;69758;52.580;13.068;2024-02-16T05:28:43;20;18;
80413;PMS5003;69758;52.580;13.068;2024-02-16T05:31:13;17;17;
80413;PMS5003;69758;52.580;13.068;2024-02-16T05:33:34;25;20;
80413;PMS5003;69758;52.580;13.068;2024-02-16T05:35:59;33;31;
80413;PMS5003;69758;52.580;13.068;2024-02-16T05:38:24;20;19;
80413;PMS5003;69758;52.580;13.068;2024-02-16T05:40:49;20;19;
80413;PMS5003;69758;52.580;13.068;2024-02-16T05:43:14;20;18;
80413;PMS5003;69758;52.580;13.068;2024-02-16T05:45:40;18;17;
80413;PMS5003;69758;52.580;13.068;2024-02-16T05:48:06;19;18;
80413;PMS5003;69758;52.580;13.068;2024-02-16T05:50:31;21;20;
80413;PMS5003;69758;52.580;13.068;2024-02-16T05:52:56;17;17;
80413;PMS5003;69758;52.580;13.068;2024-02-16T05:55:22;19;19;
80413;PMS5003;69758;52.580;13.068;2024-02-16T05:57:46;19;17;
80413;PMS5003;69758;52.580;13.068;2024-02-16T06:00:13;18;18;
80413;PMS5003;69758;52.580;13.068;2024-02-16T06:02:38;18;18;
80413;PMS5003;69758;52.580;13.068;2024-02-16T06:05:03;14;14;
80413;PMS5003;69758;52.580;13.068;2024-02-16T06:07:28;19;17;
80413;PMS5003;69758;52.580;13.068;2024-02-16T06:09:54;19;19;
80413;PMS5003;69758;52.580;13.068;2024-02-16T06:12:19;17;16;
80413;PMS5003;69758;52.580;13.068;2024-02-16T06:14:44;19;17;
80413;PMS5003;69758;52.580;13.068;2024-02-16T06:17:09;17;17;
80413;PMS5003;69758;52.580;13.068;2024-02-16T06:19:34;16;16;
80413;PMS5003;69758;52.580;13.068;2024-02-16T06:22:00;20;19;
80413;PMS5003;69758;52.580;13.068;2024-02-16T06:24:25;21;19;
80413;PMS5003;69758;52.580;13.068;2024-02-16T06:26:51;18;18;
80413;PMS5003;69758;52.580;13.068;2024-02-16T06:29:17;17;16;
80413;PMS5003;69758;52.580;13.068;2024-02-16T06:31:42;18;17;
80413;PMS5003;69758;52.580;13.068;2024-02-16T06:34:08;16;15;
80413;PMS5003;69758;52.580;13.068;2024-02-16T06:36:34;16;15;
80413;PMS5003;69758;52.580;13.068;2024-02-16T06:38:59;16;15;
80413;PMS5003;69758;52.580;13.068;2024-02-16T06:41:25;17;15;
80413;PMS5003;69758;52.580;13.068;2024-02-16T06:43:50;16;15;
80413;PMS5003;69758;52.580;13.068;2024-02-16T06:46:15;16;16;
80413;PMS5003;69758;52.580;13.068;2024-02-16T06:48:40;16;16;
80413;PMS5003;69758;52.580;13.068;2024-02-16T06:51:06;14;13;
80413;PMS5003;69758;52.580;13.068;2024-02-16T06:53:32;15;15;
80413;PMS5003;69758;52.580;13.068;2024-02-16T06:55:57;15;15;
80413;PMS5003;69758;52.580;13.068;2024-02-16T06:58:23;17;14;
80413;PMS5003;69758;52.580;13.068;2024-02-16T07:00:49;17;16;
80413;PMS5003;69758;52.580;13.068;2024-02-16T07:03:14;15;14;
80413;PMS5003;69758;52.580;13.068;2024-02-16T07:05:40;14;14;
80413;PMS5003;69758;52.580;13.068;2024-02-16T07:08:05;17;17;
80413;PMS5003;69758;52.580;13.068;2024-02-16T07:10:31;13;13;
80413;PMS5003;69758;52.580;13.068;2024-02-16T07:12:56;14;14;
80413;PMS5003;69758;52.580;13.068;2024-02-16T07:15:22;16;16;
80413;PMS5003;69758;52.580;13.068;2024-02-16T07:17:47;14;14;
80413;PMS5003;69758;52.580;13.068;2024-02-16T07:20:13;19;17;
80413;PMS5003;69758;52.580;13.068;2024-02-16T07:22:38;32;30;
80413;PMS5003;69758;52.580;13.068;2024-02-16T07:25:04;32;30;
80413;PMS5003;69758;52.580;13.068;2024-02-16T07:27:29;21;17;
80413;PMS5003;69758;52.580;13.068;2024-02-16T07:29:54;32;32;
80413;PMS5003;69758;52.580;13.068;2024-02-16T07:32:19;20;20;
80413;PMS5003;69758;52.580;13.068;2024-02-16T07:34:45;20;18;
80413;PMS5003;69758;52.580;13.068;2024-02-16T07:37:10;16;15;
80413;PMS5003;69758;52.580;13.068;2024-02-16T07:39:35;14;14;
80413;PMS5003;69758;52.580;13.068;2024-02-16T07:42:01;16;16;
80413;PMS5003;69758;52.580;13.068;2024-02-16T07:44:27;17;17;
80413;PMS5003;69758;52.580;13.068;2024-02-16T07:46:51;17;17;
80413;PMS5003;69758;52.580;13.068;2024-02-16T07:49:17;14;13;
80413;PMS5003;69758;52.580;13.068;2024-02-16T07:51:42;15;14;
80413;PMS5003;69758;52.580;13.068;2024-02-16T07:54:08;14;14;
80413;PMS5003;69758;52.580;13.068;2024-02-16T07:56:34;17;16;
80413;PMS5003;69758;52.580;13.068;2024-02-16T07:58:59;13;13;
80413;PMS5003;69758;52.580;13.068;2024-02-16T08:01:24;16;16;
80413;PMS5003;69758;52.580;13.068;2024-02-16T08:03:49;13;13;
80413;PMS5003;69758;52.580;13.068;2024-02-16T08:06:15;18;15;
80413;PMS5003;69758;52.580;13.068;2024-02-16T08:08:40;11;11;
80413;PMS5003;69758;52.580;13.068;2024-02-16T08:11:05;9;9;
80413;PMS5003;69758;52.580;13.068;2024-02-16T08:13:31;12;10;
80413;PMS5003;69758;52.580;13.068;2024-02-16T08:15:56;12;11;
80413;PMS5003;69758;52.580;13.068;2024-02-16T08:18:22;10;9;
80413;PMS5003;69758;52.580;13.068;2024-02-16T08:20:47;10;9;
80413;PMS5003;69758;52.580;13.068;2024-02-16T08:23:13;12;12;
80413;PMS5003;69758;52.580;13.068;2024-02-16T08:25:38;12;12;
80413;PMS5003;69758;52.580;13.068;2024-02-16T08:28:03;11;11;
80413;PMS5003;69758;52.580;13.068;2024-02-16T08:30:28;11;11;
80413;PMS5003;69758;52.580;13.068;2024-02-16T08:32:54;9;8;
80413;PMS5003;69758;52.580;13.068;2024-02-16T08:35:19;12;12;
80413;PMS5003;69758;52.580;13.068;2024-02-16T08:37:44;10;9;
80413;PMS5003;69758;52.580;13.068;2024-02-16T08:40:12;10;10;
80413;PMS5003;69758;52.580;13.068;2024-02-16T08:42:35;10;10;
80413;PMS5003;69758;52.580;13.068;2024-02-16T08:45:00;12;11;
80413;PMS5003;69758;52.580;13.068;2024-02-16T08:47:25;10;9;
80413;PMS5003;69758;52.580;13.068;2024-02-16T08:49:50;9;9;
80413;PMS5003;69758;52.580;13.068;2024-02-16T08:52:16;8;8;
80413;PMS5003;69758;52.580;13.068;2024-02-16T08:54:42;12;11;
80413;PMS5003;69758;52.580;13.068;2024-02-16T08:57:07;11;10;
80413;PMS5003;69758;52.580;13.068;2024-02-16T08:59:32;11;10;
80413;PMS5003;69758;52.580;13.068;2024-02-16T09:01:57;8;8;
80413;PMS5003;69758;52.580;13.068;2024-02-16T09:04:22;14;12;
80413;PMS5003;69758;52.580;13.068;2024-02-16T09:06:48;10;10;
80413;PMS5003;69758;52.580;13.068;2024-02-16T09:09:13;10;9;
80413;PMS5003;69758;52.580;13.068;2024-02-16T09:11:38;9;9;
80413;PMS5003;69758;52.580;13.068;2024-02-16T09:14:04;9;9;
80413;PMS5003;69758;52.580;13.068;2024-02-16T09:16:29;8;8;
80413;PMS5003;69758;52.580;13.068;2024-02-16T09:18:54;8;8;
80413;PMS5003;69758;52.580;13.068;2024-02-16T09:21:20;10;10;
80413;PMS5003;69758;52.580;13.068;2024-02-16T09:23:45;7;7;
80413;PMS5003;69758;52.580;13.068;2024-02-16T09:26:10;11;9;
80413;PMS5003;69758;52.580;13.068;2024-02-16T09:28:38;6;6;
80413;PMS5003;69758;52.580;13.068;2024-02-16T09:31:01;7;7;
80413;PMS5003;69758;52.580;13.068;2024-02-16T09:33:26;6;6;
80413;PMS5003;69758;52.580;13.068;2024-02-16T09:35:51;8;8;
80413;PMS5003;69758;52.580;13.068;2024-02-16T09:38:16;8;8;
80413;PMS5003;69758;52.580;13.068;2024-02-16T09:40:41;9;9;
80413;PMS5003;69758;52.580;13.068;2024-02-16T09:43:07;11;10;
80413;PMS5003;69758;52.580;13.068;2024-02-16T09:45:32;8;8;
80413;PMS5003;69758;52.580;13.068;2024-02-16T09:47:58;8;7;
80413;PMS5003;69758;52.580;13.068;2024-02-16T09:50:23;7;7;
80413;PMS5003;69758;52.580;13.068;2024-02-16T09:52:48;7;7;
80413;PMS5003;69758;52.580;13.068;2024-02-16T09:55:13;10;9;
80413;PMS5003;69758;52.580;13.068;2024-02-16T09:57:38;10;10;
80413;PMS5003;69758;52.580;13.068;2024-02-16T10:00:04;8;8;
80413;PMS5003;69758;52.580;13.068;2024-02-16T10:02:32;9;9;
80413;PMS5003;69758;52.580;13.068;2024-02-16T10:04:54;9;8;
80413;PMS5003;69758;52.580;13.068;2024-02-16T10:09:45;10;10;
80413;PMS5003;69758;52.580;13.068;2024-02-16T10:12:10;9;9;
80413;PMS5003;69758;52.580;13.068;2024-02-16T10:14:36;7;7;
80413;PMS5003;69758;52.580;13.068;2024-02-16T10:17:02;11;10;
80413;PMS5003;69758;52.580;13.068;2024-02-16T10:19:27;8;8;
80413;PMS5003;69758;52.580;13.068;2024-02-16T10:21:52;7;7;
80413;PMS5003;69758;52.580;13.068;2024-02-16T10:24:21;11;10;
80413;PMS5003;69758;52.580;13.068;2024-02-16T10:26:43;23;23;
80413;PMS5003;69758;52.580;13.068;2024-02-16T10:29:08;9;9;
80413;PMS5003;69758;52.580;13.068;2024-02-16T10:31:33;7;7;
80413;PMS5003;69758;52.580;13.068;2024-02-16T10:33:59;9;9;
80413;PMS5003;69758;52.580;13.068;2024-02-16T10:36:24;7;7;
80413;PMS5003;69758;52.580;13.068;2024-02-16T10:38:49;7;7;
80413;PMS5003;69758;52.580;13.068;2024-02-16T10:41:14;7;7;
80413;PMS5003;69758;52.580;13.068;2024-02-16T10:43:39;10;8;
80413;PMS5003;69758;52.580;13.068;2024-02-16T10:46:04;8;8;
80413;PMS5003;69758;52.580;13.068;2024-02-16T10:48:29;7;6;
80413;PMS5003;69758;52.580;13.068;2024-02-16T10:50:55;7;7;
80413;PMS5003;69758;52.580;13.068;2024-02-16T10:53:22;8;8;
80413;PMS5003;69758;52.580;13.068;2024-02-16T10:55:46;7;6;
80413;PMS5003;69758;52.580;13.068;2024-02-16T10:58:11;8;8;
80413;PMS5003;69758;52.580;13.068;2024-02-16T11:00:37;7;7;
80413;PMS5003;69758;52.580;13.068;2024-02-16T11:03:03;9;9;
80413;PMS5003;69758;52.580;13.068;2024-02-16T11:05:33;8;8;
80413;PMS5003;69758;52.580;13.068;2024-02-16T11:10:17;10;10;
80413;PMS5003;69758;52.580;13.068;2024-02-16T11:12:43;7;7;
80413;PMS5003;69758;52.580;13.068;2024-02-16T11:15:08;8;8;
80413;PMS5003;69758;52.580;13.068;2024-02-16T11:17:33;9;9;
80413;PMS5003;69758;52.580;13.068;2024-02-16T11:19:59;9;9;
80413;PMS5003;69758;52.580;13.068;2024-02-16T11:22:26;9;9;
80413;PMS5003;69758;52.580;13.068;2024-02-16T11:24:51;8;8;
80413;PMS5003;69758;52.580;13.068;2024-02-16T11:27:15;8;7;
80413;PMS5003;69758;52.580;13.068;2024-02-16T11:29:40;7;7;
80413;PMS5003;69758;52.580;13.068;2024-02-16T11:32:05;10;10;
80413;PMS5003;69758;52.580;13.068;2024-02-16T11:34:30;10;9;
80413;PMS5003;69758;52.580;13.068;2024-02-16T11:36:56;8;8;
80413;PMS5003;69758;52.580;13.068;2024-02-16T11:39:21;8;8;
80413;PMS5003;69758;52.580;13.068;2024-02-16T11:41:46;7;6;
80413;PMS5003;69758;52.580;13.068;2024-02-16T11:44:12;9;8;
80413;PMS5003;69758;52.580;13.068;2024-02-16T11:46:37;8;7;
80413;PMS5003;69758;52.580;13.068;2024-02-16T11:49:04;12;12;
80413;PMS5003;69758;52.580;13.068;2024-02-16T11:51:28;10;10;
80413;PMS5003;69758;52.580;13.068;2024-02-16T11:53:55;10;10;
80413;PMS5003;69758;52.580;13.068;2024-02-16T11:56:22;8;7;
80413;PMS5003;69758;52.580;13.068;2024-02-16T11:58:44;6;6;
80413;PMS5003;69758;52.580;13.068;2024-02-16T12:01:10;6;6;
80413;PMS5003;69758;52.580;13.068;2024-02-16T12:03:35;6;6;
80413;PMS5003;69758;52.580;13.068;2024-02-16T12:06:00;6;6;
80413;PMS5003;69758;52.580;13.068;2024-02-16T12:08:31;6;6;
80413;PMS5003;69758;52.580;13.068;2024-02-16T12:10:50;7;6;
80413;PMS5003;69758;52.580;13.068;2024-02-16T12:13:16;6;6;
80413;PMS5003;69758;52.580;13.068;2024-02-16T12:15:40;8;8;
80413;PMS5003;69758;52.580;13.068;2024-02-16T12:18:06;8;8;
80413;PMS5003;69758;52.580;13.068;2024-02-16T12:20:32;6;6;
80413;PMS5003;69758;52.580;13.068;2024-02-16T12:22:56;7;7;
80413;PMS5003;69758;52.580;13.068;2024-02-16T12:25:22;7;7;
80413;PMS5003;69758;52.580;13.068;2024-02-16T12:27:47;8;7;
80413;PMS5003;69758;52.580;13.068;2024-02-16T12:30:12;5;5;
80413;PMS5003;69758;52.580;13.068;2024-02-16T12:32:38;8;7;
80413;PMS5003;69758;52.580;13.068;2024-02-16T12:35:03;8;7;
80413;PMS5003;69758;52.580;13.068;2024-02-16T12:37:28;8;7;
80413;PMS5003;69758;52.580;13.068;2024-02-16T12:39:54;7;5;
80413;PMS5003;69758;52.580;13.068;2024-02-16T12:42:19;5;5;
80413;PMS5003;69758;52.580;13.068;2024-02-16T12:44:44;4;4;
80413;PMS5003;69758;52.580;13.068;2024-02-16T12:47:09;6;6;
80413;PMS5003;69758;52.580;13.068;2024-02-16T12:49:34;7;6;
80413;PMS5003;69758;52.580;13.068;2024-02-16T12:51:59;7;7;
80413;PMS5003;69758;52.580;13.068;2024-02-16T12:54:24;4;4;
80413;PMS5003;69758;52.580;13.068;2024-02-16T12:56:50;7;7;
80413;PMS5003;69758;52.580;13.068;2024-02-16T12:59:15;7;6;
80413;PMS5003;69758;52.580;13.068;2024-02-16T13:01:40;6;5;
80413;PMS5003;69758;52.580;13.068;2024-02-16T13:04:05;5;4;
80413;PMS5003;69758;52.580;13.068;2024-02-16T13:06:30;6;6;
80413;PMS5003;69758;52.580;13.068;2024-02-16T13:08:55;5;5;
80413;PMS5003;69758;52.580;13.068;2024-02-16T13:11:20;5;5;
80413;PMS5003;69758;52.580;13.068;2024-02-16T13:13:45;4;4;
80413;PMS5003;69758;52.580;13.068;2024-02-16T13:16:11;5;5;
80413;PMS5003;69758;52.580;13.068;2024-02-16T13:18:36;4;4;
80413;PMS5003;69758;52.580;13.068;2024-02-16T13:21:01;4;4;
80413;PMS5003;69758;52.580;13.068;2024-02-16T13:23:26;5;5;
80413;PMS5003;69758;52.580;13.068;2024-02-16T13:25:52;5;5;
80413;PMS5003;69758;52.580;13.068;2024-02-16T13:28:17;5;5;
80413;PMS5003;69758;52.580;13.068;2024-02-16T13:30:42;5;4;
80413;PMS5003;69758;52.580;13.068;2024-02-16T13:33:07;4;4;
80413;PMS5003;69758;52.580;13.068;2024-02-16T13:35:33;3;3;
80413;PMS5003;69758;52.580;13.068;2024-02-16T13:37:57;2;2;
80413;PMS5003;69758;52.580;13.068;2024-02-16T13:40:22;2;2;
80413;PMS5003;69758;52.580;13.068;2024-02-16T13:42:47;3;3;
80413;PMS5003;69758;52.580;13.068;2024-02-16T13:45:12;4;4;
80413;PMS5003;69758;52.580;13.068;2024-02-16T13:47:37;5;5;
80413;PMS5003;69758;52.580;13.068;2024-02-16T13:50:03;3;3;
80413;PMS5003;69758;52.580;13.068;2024-02-16T13:52:28;4;3;
80413;PMS5003;69758;52.580;13.068;2024-02-16T13:54:53;3;3;
80413;PMS5003;69758;52.580;13.068;2024-02-16T13:57:18;4;4;
80413;PMS5003;69758;52.580;13.068;2024-02-16T13:59:43;4;4;
80413;PMS5003;69758;52.580;13.068;2024-02-16T14:02:08;5;5;
80413;PMS5003;69758;52.580;13.068;2024-02-16T14:04:34;3;3;
80413;PMS5003;69758;52.580;13.068;2024-02-16T14:06:58;3;3;
80413;PMS5003;69758;52.580;13.068;2024-02-16T14:09:24;7;6;
80413;PMS5003;69758;52.580;13.068;2024-02-16T14:11:49;5;5;
80413;PMS5003;69758;52.580;13.068;2024-02-16T14:14:14;5;5;
80413;PMS5003;69758;52.580;13.068;2024-02-16T14:16:39;5;4;
80413;PMS5003;69758;52.580;13.068;2024-02-16T14:19:04;3;3;
80413;PMS5003;69758;52.580;13.068;2024-02-16T14:21:29;4;4;
80413;PMS5003;69758;52.580;13.068;2024-02-16T14:23:54;5;5;
80413;PMS5003;69758;52.580;13.068;2024-02-16T14:26:19;3;3;
80413;PMS5003;69758;52.580;13.068;2024-02-16T14:28:45;5;4;
80413;PMS5003;69758;52.580;13.068;2024-02-16T14:31:10;5;5;
80413;PMS5003;69758;52.580;13.068;2024-02-16T14:33:35;3;3;
80413;PMS5003;69758;52.580;13.068;2024-02-16T14:36:00;5;5;
80413;PMS5003;69758;52.580;13.068;2024-02-16T14:38:25;5;5;
80413;PMS5003;69758;52.580;13.068;2024-02-16T14:40:50;5;5;
80413;PMS5003;69758;52.580;13.068;2024-02-16T14:43:15;9;7;
80413;PMS5003;69758;52.580;13.068;2024-02-16T14:45:40;6;6;
80413;PMS5003;69758;52.580;13.068;2024-02-16T14:48:06;6;6;
80413;PMS5003;69758;52.580;13.068;2024-02-16T14:50:31;5;5;
80413;PMS5003;69758;52.580;13.068;2024-02-16T14:52:56;4;4;
80413;PMS5003;69758;52.580;13.068;2024-02-16T14:55:21;8;7;
80413;PMS5003;69758;52.580;13.068;2024-02-16T14:57:46;5;5;
80413;PMS5003;69758;52.580;13.068;2024-02-16T15:00:12;4;4;
80413;PMS5003;69758;52.580;13.068;2024-02-16T15:02:36;7;6;
80413;PMS5003;69758;52.580;13.068;2024-02-16T15:05:01;5;5;
80413;PMS5003;69758;52.580;13.068;2024-02-16T15:07:27;4;4;
80413;PMS5003;69758;52.580;13.068;2024-02-16T15:09:52;5;5;
80413;PMS5003;69758;52.580;13.068;2024-02-16T15:12:17;7;7;
80413;PMS5003;69758;52.580;13.068;2024-02-16T15:14:42;4;4;
80413;PMS5003;69758;52.580;13.068;2024-02-16T15:17:07;4;4;
80413;PMS5003;69758;52.580;13.068;2024-02-16T15:19:32;3;3;
80413;PMS5003;69758;52.580;13.068;2024-02-16T15:21:57;5;4;
80413;PMS5003;69758;52.580;13.068;2024-02-16T15:24:22;4;4;
80413;PMS5003;69758;52.580;13.068;2024-02-16T15:26:47;4;4;
80413;PMS5003;69758;52.580;13.068;2024-02-16T15:29:13;5;5;
80413;PMS5003;69758;52.580;13.068;2024-02-16T15:31:38;5;4;
80413;PMS5003;69758;52.580;13.068;2024-02-16T15:34:03;5;5;
80413;PMS5003;69758;52.580;13.068;2024-02-16T15:36:28;4;4;
80413;PMS5003;69758;52.580;13.068;2024-02-16T15:38:53;6;6;
80413;PMS5003;69758;52.580;13.068;2024-02-16T15:41:18;6;5;
80413;PMS5003;69758;52.580;13.068;2024-02-16T15:43:43;5;5;
80413;PMS5003;69758;52.580;13.068;2024-02-16T15:46:08;6;5;
80413;PMS5003;69758;52.580;13.068;2024-02-16T15:48:34;4;4;
80413;PMS5003;69758;52.580;13.068;2024-02-16T15:50:59;6;6;
80413;PMS5003;69758;52.580;13.068;2024-02-16T15:53:24;6;6;
80413;PMS5003;69758;52.580;13.068;2024-02-16T15:55:49;4;4;
80413;PMS5003;69758;52.580;13.068;2024-02-16T15:58:14;5;5;
80413;PMS5003;69758;52.580;13.068;2024-02-16T16:00:39;6;6;
80413;PMS5003;69758;52.580;13.068;2024-02-16T16:03:04;6;6;
80413;PMS5003;69758;52.580;13.068;2024-02-16T16:05:29;2;2;
80413;PMS5003;69758;52.580;13.068;2024-02-16T16:07:55;8;8;